AFR149 DNMM-LFPG
Flight info
| Callsign | AFR149 |
|---|---|
| Flight time | N/A |
| Altitude | 38000 |
| Route | POLTO1Q POLTO L433 TYE UA601 PAMPA UR983 OG UR866 BULIS DCT MABAP UR722 SAK UG5 TOLSI/N0485F430 UG5 KORIS L27 VJF DCT SVL DCT HIJ DCT RUSEM DCT SOTUK DCT USOKO DCT TLD DCT SIE DCT EDIGO DCT DGO L176 LUSEM DCT LULUT DCT POI/N0497F300 DCT PEPAX UT182 KEPER |
| Aircraft | A359/H-SDE2E3GHIJ3J4J5LM1ORWXY/LB1D1 |
Departure
| Time | N/A |
|---|---|
| Airport | Murtala Muhammed International Airport (DNMM) |
Arrival
| Time | 2026-05-04 00:23 |
|---|---|
| Airport | Charles de Gaulle International Airport (LFPG) |
| Time | Latitude | Longitude | Altitude | Speed | Heading |
|---|---|---|---|---|---|
| 2026-05-03 20:15 | 18.51392 | -4.39087 | 39847 ft | 474 kts | 330° |
| 2026-05-03 20:15 | 18.57403 | -4.41993 | 39844 ft | 474 kts | 330° |
| 2026-05-03 20:16 | 18.63390 | -4.44890 | 39854 ft | 474 kts | 330° |
| 2026-05-03 20:16 | 18.69349 | -4.47775 | 39850 ft | 473 kts | 330° |
| 2026-05-03 20:17 | 18.75331 | -4.50674 | 39848 ft | 473 kts | 330° |
| 2026-05-03 20:17 | 18.81316 | -4.53576 | 39851 ft | 473 kts | 330° |
| 2026-05-03 20:18 | 18.87303 | -4.56482 | 39851 ft | 473 kts | 330° |
| 2026-05-03 20:18 | 18.93278 | -4.59384 | 39855 ft | 472 kts | 330° |
| 2026-05-03 20:19 | 18.99249 | -4.62286 | 39856 ft | 472 kts | 330° |
| 2026-05-03 20:19 | 19.05172 | -4.65168 | 39853 ft | 472 kts | 330° |
| 2026-05-03 20:20 | 19.11140 | -4.68073 | 39851 ft | 471 kts | 330° |
| 2026-05-03 20:20 | 19.17088 | -4.70971 | 39852 ft | 471 kts | 330° |
| 2026-05-03 20:21 | 19.23039 | -4.73873 | 39852 ft | 471 kts | 330° |
| 2026-05-03 20:21 | 19.28983 | -4.76774 | 39852 ft | 470 kts | 330° |
| 2026-05-03 20:22 | 19.34934 | -4.79681 | 39852 ft | 470 kts | 330° |
| 2026-05-03 20:22 | 19.40875 | -4.82585 | 39851 ft | 470 kts | 330° |
| 2026-05-03 20:23 | 19.46805 | -4.85487 | 39854 ft | 470 kts | 330° |
| 2026-05-03 20:23 | 19.52738 | -4.88394 | 39855 ft | 470 kts | 330° |
| 2026-05-03 20:24 | 19.58673 | -4.91304 | 39856 ft | 469 kts | 330° |
| 2026-05-03 20:24 | 19.64603 | -4.94213 | 39857 ft | 469 kts | 330° |
| 2026-05-03 20:25 | 19.70524 | -4.97121 | 39863 ft | 469 kts | 330° |
| 2026-05-03 20:25 | 19.76450 | -5.00033 | 39860 ft | 468 kts | 330° |
| 2026-05-03 20:26 | 19.82325 | -5.02923 | 39860 ft | 468 kts | 330° |
| 2026-05-03 20:26 | 19.88243 | -5.05836 | 39865 ft | 468 kts | 330° |
| 2026-05-03 20:27 | 19.94153 | -5.08747 | 39859 ft | 468 kts | 330° |
| 2026-05-03 20:27 | 20.00065 | -5.11662 | 39865 ft | 468 kts | 330° |
| 2026-05-03 20:28 | 20.05970 | -5.14576 | 39860 ft | 468 kts | 330° |
| 2026-05-03 20:28 | 20.11871 | -5.17490 | 39861 ft | 467 kts | 330° |
| 2026-05-03 20:29 | 20.17770 | -5.20406 | 39857 ft | 467 kts | 330° |
| 2026-05-03 20:29 | 20.23665 | -5.23323 | 39863 ft | 467 kts | 330° |
| 2026-05-03 20:30 | 20.29569 | -5.26246 | 39865 ft | 467 kts | 330° |
| 2026-05-03 20:30 | 20.35426 | -5.29149 | 39867 ft | 467 kts | 330° |
| 2026-05-03 20:31 | 20.41355 | -5.32089 | 39857 ft | 467 kts | 330° |
| 2026-05-03 20:31 | 20.47217 | -5.34999 | 39855 ft | 467 kts | 329° |
| 2026-05-03 20:32 | 20.53114 | -5.37929 | 39872 ft | 467 kts | 329° |
| 2026-05-03 20:32 | 20.58994 | -5.40853 | 39864 ft | 467 kts | 329° |
| 2026-05-03 20:33 | 20.64892 | -5.43788 | 39867 ft | 467 kts | 329° |
| 2026-05-03 20:33 | 20.70777 | -5.46719 | 39864 ft | 467 kts | 329° |
| 2026-05-03 20:34 | 20.76673 | -5.49657 | 39867 ft | 467 kts | 329° |
| 2026-05-03 20:34 | 20.82561 | -5.52594 | 39865 ft | 467 kts | 329° |
| 2026-05-03 20:35 | 20.88451 | -5.55535 | 39865 ft | 467 kts | 329° |
| 2026-05-03 20:35 | 20.94304 | -5.58459 | 39867 ft | 467 kts | 329° |
| 2026-05-03 20:36 | 21.00198 | -5.61406 | 39866 ft | 467 kts | 329° |
| 2026-05-03 20:36 | 21.06090 | -5.64356 | 39870 ft | 467 kts | 329° |
| 2026-05-03 20:37 | 21.11979 | -5.67305 | 39868 ft | 467 kts | 329° |
| 2026-05-03 20:37 | 21.17822 | -5.70235 | 39870 ft | 466 kts | 329° |
| 2026-05-03 20:38 | 21.23738 | -5.73204 | 39870 ft | 466 kts | 329° |
| 2026-05-03 20:38 | 21.29588 | -5.76142 | 39868 ft | 466 kts | 329° |
| 2026-05-03 20:39 | 21.35465 | -5.79097 | 39868 ft | 466 kts | 329° |
| 2026-05-03 20:39 | 21.41328 | -5.82047 | 39869 ft | 466 kts | 329° |
| 2026-05-03 20:40 | 21.47195 | -5.85002 | 39869 ft | 465 kts | 329° |
| 2026-05-03 20:40 | 21.53056 | -5.87956 | 39872 ft | 465 kts | 329° |
| 2026-05-03 20:41 | 21.58912 | -5.90911 | 39872 ft | 465 kts | 329° |
| 2026-05-03 20:41 | 21.64844 | -5.93640 | 39875 ft | 471 kts | 336° |
| 2026-05-03 20:42 | 21.71328 | -5.95075 | 39877 ft | 479 kts | 346° |
| 2026-05-03 20:42 | 21.77994 | -5.95718 | 39876 ft | 484 kts | 352° |
| 2026-05-03 20:43 | 21.84744 | -5.95817 | 39878 ft | 486 kts | 354° |
| 2026-05-03 20:43 | 21.91522 | -5.95786 | 39880 ft | 486 kts | 354° |
| 2026-05-03 20:44 | 21.98285 | -5.95761 | 39879 ft | 486 kts | 354° |
| 2026-05-03 20:44 | 22.05019 | -5.95758 | 39880 ft | 485 kts | 353° |
| 2026-05-03 20:45 | 22.11771 | -5.95766 | 39884 ft | 485 kts | 353° |
| 2026-05-03 20:45 | 22.18531 | -5.95776 | 39884 ft | 485 kts | 353° |
| 2026-05-03 20:46 | 22.25281 | -5.95784 | 39882 ft | 485 kts | 353° |
| 2026-05-03 20:46 | 22.32035 | -5.95792 | 39889 ft | 485 kts | 353° |
| 2026-05-03 20:47 | 22.38789 | -5.95799 | 39888 ft | 485 kts | 353° |
| 2026-05-03 20:47 | 22.45561 | -5.95807 | 39888 ft | 485 kts | 353° |
| 2026-05-03 20:48 | 22.52312 | -5.95815 | 39890 ft | 485 kts | 353° |
| 2026-05-03 20:48 | 22.59071 | -5.95822 | 39893 ft | 485 kts | 353° |
| 2026-05-03 20:49 | 22.65789 | -5.95830 | 39891 ft | 485 kts | 353° |
| 2026-05-03 20:49 | 22.72539 | -5.95837 | 39891 ft | 485 kts | 353° |
| 2026-05-03 20:50 | 22.79331 | -5.95845 | 39893 ft | 485 kts | 353° |
| 2026-05-03 20:50 | 22.86041 | -5.95852 | 39894 ft | 485 kts | 353° |
| 2026-05-03 20:51 | 22.92800 | -5.95859 | 39894 ft | 485 kts | 353° |
| 2026-05-03 20:51 | 22.98408 | -5.95865 | 39894 ft | 485 kts | 353° |
| 2026-05-03 20:52 | 23.05157 | -5.95873 | 39896 ft | 485 kts | 353° |
| 2026-05-03 20:52 | 23.11905 | -5.95881 | 39892 ft | 484 kts | 353° |
| 2026-05-03 20:53 | 23.18643 | -5.95888 | 39891 ft | 484 kts | 353° |
| 2026-05-03 20:53 | 23.25390 | -5.95897 | 39893 ft | 484 kts | 353° |
| 2026-05-03 20:54 | 23.32088 | -5.95904 | 39895 ft | 484 kts | 353° |
| 2026-05-03 20:54 | 23.42198 | -5.95916 | 39896 ft | 484 kts | 353° |
| 2026-05-03 20:55 | 23.48954 | -5.95923 | 39902 ft | 485 kts | 353° |
| 2026-05-03 20:55 | 23.55705 | -5.95930 | 39891 ft | 485 kts | 353° |
| 2026-05-03 20:56 | 23.62457 | -5.95938 | 39892 ft | 485 kts | 353° |
| 2026-05-03 20:56 | 23.69161 | -5.95946 | 39892 ft | 485 kts | 353° |
| 2026-05-03 20:57 | 23.75914 | -5.95954 | 39890 ft | 485 kts | 353° |
| 2026-05-03 20:57 | 23.82666 | -5.95962 | 39901 ft | 485 kts | 353° |
| 2026-05-03 20:58 | 23.89418 | -5.95969 | 39898 ft | 485 kts | 353° |
| 2026-05-03 20:58 | 23.96174 | -5.95976 | 39893 ft | 485 kts | 353° |
| 2026-05-03 20:59 | 24.02916 | -5.95984 | 39902 ft | 485 kts | 353° |
| 2026-05-03 20:59 | 24.09627 | -5.95992 | 39901 ft | 485 kts | 353° |
| 2026-05-03 21:00 | 24.15290 | -5.95999 | 39901 ft | 485 kts | 353° |
| 2026-05-03 21:00 | 24.23138 | -5.96008 | 39899 ft | 485 kts | 353° |
| 2026-05-03 21:01 | 24.29904 | -5.96015 | 39900 ft | 485 kts | 353° |
| 2026-05-03 21:01 | 24.36661 | -5.96023 | 39899 ft | 486 kts | 353° |
| 2026-05-03 21:02 | 24.43426 | -5.96032 | 39896 ft | 486 kts | 353° |
| 2026-05-03 21:02 | 24.50195 | -5.96039 | 39899 ft | 486 kts | 353° |
| 2026-05-03 21:03 | 24.56949 | -5.96047 | 39901 ft | 487 kts | 353° |
| 2026-05-03 21:03 | 24.63726 | -5.96055 | 39899 ft | 487 kts | 353° |
| 2026-05-03 21:04 | 24.70517 | -5.96063 | 39897 ft | 487 kts | 353° |
| 2026-05-03 21:04 | 24.77266 | -5.96071 | 39898 ft | 487 kts | 353° |
| 2026-05-03 21:05 | 24.84057 | -5.96078 | 39896 ft | 488 kts | 353° |
| 2026-05-03 21:05 | 24.90850 | -5.96086 | 39896 ft | 488 kts | 353° |
| 2026-05-03 21:06 | 24.97611 | -5.96094 | 39896 ft | 488 kts | 353° |
| 2026-05-03 21:06 | 25.04411 | -5.96102 | 39907 ft | 488 kts | 353° |
| 2026-05-03 21:07 | 25.11212 | -5.96110 | 39895 ft | 489 kts | 353° |
| 2026-05-03 21:07 | 25.18033 | -5.96117 | 39897 ft | 489 kts | 353° |
| 2026-05-03 21:08 | 25.24838 | -5.96125 | 39901 ft | 489 kts | 352° |
| 2026-05-03 21:08 | 25.31641 | -5.96133 | 39903 ft | 489 kts | 352° |
| 2026-05-03 21:09 | 25.38455 | -5.96141 | 39906 ft | 490 kts | 352° |
| 2026-05-03 21:09 | 25.45225 | -5.96149 | 39901 ft | 490 kts | 352° |
| 2026-05-03 21:10 | 25.52044 | -5.96157 | 39904 ft | 490 kts | 352° |
| 2026-05-03 21:10 | 25.58871 | -5.96165 | 39902 ft | 491 kts | 352° |
| 2026-05-03 21:11 | 25.65703 | -5.96173 | 39901 ft | 491 kts | 352° |
| 2026-05-03 21:11 | 25.72542 | -5.96181 | 39902 ft | 491 kts | 352° |
| 2026-05-03 21:12 | 25.79381 | -5.96189 | 39900 ft | 491 kts | 352° |
| 2026-05-03 21:12 | 25.86226 | -5.96197 | 39899 ft | 492 kts | 352° |
| 2026-05-03 21:13 | 25.93077 | -5.96205 | 39897 ft | 492 kts | 352° |
| 2026-05-03 21:13 | 25.99892 | -5.96213 | 39900 ft | 492 kts | 352° |
| 2026-05-03 21:14 | 26.06745 | -5.96222 | 39900 ft | 492 kts | 352° |
| 2026-05-03 21:14 | 26.13593 | -5.96230 | 39896 ft | 492 kts | 352° |
| 2026-05-03 21:15 | 26.20465 | -5.96238 | 39899 ft | 493 kts | 352° |
| 2026-05-03 21:15 | 26.27320 | -5.96246 | 39900 ft | 493 kts | 352° |
| 2026-05-03 21:16 | 26.34176 | -5.96254 | 39902 ft | 493 kts | 352° |
| 2026-05-03 21:16 | 26.41055 | -5.96261 | 39897 ft | 493 kts | 352° |
| 2026-05-03 21:17 | 26.46771 | -5.96267 | 39901 ft | 493 kts | 352° |
| 2026-05-03 21:17 | 26.54760 | -5.96278 | 39902 ft | 494 kts | 352° |
| 2026-05-03 21:18 | 26.61638 | -5.96286 | 39896 ft | 494 kts | 352° |
| 2026-05-03 21:18 | 26.68518 | -5.96295 | 39897 ft | 494 kts | 352° |
| 2026-05-03 21:19 | 26.75440 | -5.96304 | 39893 ft | 494 kts | 352° |
| 2026-05-03 21:19 | 26.82292 | -5.96311 | 39892 ft | 494 kts | 352° |
| 2026-05-03 21:20 | 26.89173 | -5.96319 | 39891 ft | 494 kts | 352° |
| 2026-05-03 21:20 | 26.96065 | -5.96328 | 39890 ft | 494 kts | 352° |
| 2026-05-03 21:21 | 27.02953 | -5.96337 | 39889 ft | 495 kts | 352° |
| 2026-05-03 21:21 | 27.09788 | -5.96345 | 39889 ft | 495 kts | 352° |
| 2026-05-03 21:22 | 27.16683 | -5.96353 | 39882 ft | 495 kts | 352° |
| 2026-05-03 21:22 | 27.23573 | -5.96361 | 39892 ft | 495 kts | 352° |
| 2026-05-03 21:23 | 27.30457 | -5.96369 | 39894 ft | 495 kts | 352° |
| 2026-05-03 21:23 | 27.37352 | -5.96378 | 39884 ft | 495 kts | 352° |
| 2026-05-03 21:24 | 27.44246 | -5.96386 | 39883 ft | 495 kts | 352° |
| 2026-05-03 21:24 | 27.51091 | -5.96394 | 39887 ft | 495 kts | 352° |
| 2026-05-03 21:25 | 27.57988 | -5.96403 | 39886 ft | 495 kts | 352° |
| 2026-05-03 21:25 | 27.64895 | -5.96411 | 39891 ft | 495 kts | 352° |
| 2026-05-03 21:26 | 27.71752 | -5.96420 | 39890 ft | 495 kts | 352° |
| 2026-05-03 21:26 | 27.78646 | -5.96428 | 39893 ft | 495 kts | 352° |
| 2026-05-03 21:27 | 27.85540 | -5.96436 | 39887 ft | 495 kts | 352° |
| 2026-05-03 21:27 | 27.92427 | -5.96445 | 39890 ft | 495 kts | 352° |
| 2026-05-03 21:28 | 27.99319 | -5.96454 | 39888 ft | 495 kts | 352° |
| 2026-05-03 21:28 | 28.06220 | -5.96462 | 39887 ft | 495 kts | 352° |
| 2026-05-03 21:29 | 28.13108 | -5.96470 | 39889 ft | 495 kts | 352° |
| 2026-05-03 21:29 | 28.19957 | -5.96479 | 39886 ft | 495 kts | 352° |
| 2026-05-03 21:30 | 28.26849 | -5.96487 | 39890 ft | 495 kts | 352° |
| 2026-05-03 21:30 | 28.33737 | -5.96495 | 39891 ft | 495 kts | 352° |
| 2026-05-03 21:31 | 28.40637 | -5.96503 | 39894 ft | 495 kts | 352° |
| 2026-05-03 21:31 | 28.47530 | -5.96512 | 39897 ft | 495 kts | 352° |
| 2026-05-03 21:32 | 28.54371 | -5.96521 | 39896 ft | 495 kts | 352° |
| 2026-05-03 21:32 | 28.61268 | -5.96529 | 39899 ft | 495 kts | 352° |
| 2026-05-03 21:33 | 28.68157 | -5.96537 | 39903 ft | 494 kts | 352° |
| 2026-05-03 21:33 | 28.75033 | -5.96546 | 39908 ft | 494 kts | 352° |
| 2026-05-03 21:34 | 28.81917 | -5.96555 | 39912 ft | 494 kts | 352° |
| 2026-05-03 21:34 | 28.88745 | -5.96564 | 39909 ft | 494 kts | 352° |
| 2026-05-03 21:35 | 28.95627 | -5.96572 | 39908 ft | 494 kts | 352° |
| 2026-05-03 21:35 | 29.02502 | -5.96580 | 39910 ft | 494 kts | 352° |
| 2026-05-03 21:36 | 29.09381 | -5.96589 | 39916 ft | 494 kts | 352° |
| 2026-05-03 21:36 | 29.15104 | -5.96596 | 39915 ft | 494 kts | 352° |
| 2026-05-03 21:37 | 29.21992 | -5.96605 | 39916 ft | 494 kts | 352° |
| 2026-05-03 21:37 | 29.29978 | -5.96615 | 39918 ft | 494 kts | 352° |
| 2026-05-03 21:38 | 29.35714 | -5.96622 | 39918 ft | 494 kts | 352° |
| 2026-05-03 21:38 | 29.42592 | -5.96631 | 39915 ft | 494 kts | 352° |
| 2026-05-03 21:39 | 29.49479 | -5.96640 | 39911 ft | 494 kts | 352° |
| 2026-05-03 21:39 | 29.56363 | -5.96647 | 39912 ft | 495 kts | 352° |
| 2026-05-03 21:40 | 29.63254 | -5.96656 | 39911 ft | 495 kts | 352° |
| 2026-05-03 21:40 | 29.70138 | -5.96664 | 39910 ft | 494 kts | 352° |
| 2026-05-03 21:41 | 29.76976 | -5.96673 | 39914 ft | 494 kts | 352° |
| 2026-05-03 21:41 | 29.83851 | -5.96682 | 39918 ft | 494 kts | 352° |
| 2026-05-03 21:42 | 29.90726 | -5.96691 | 39919 ft | 494 kts | 352° |
| 2026-05-03 21:42 | 29.97600 | -5.96702 | 39930 ft | 493 kts | 352° |
| 2026-05-03 21:43 | 30.04468 | -5.96701 | 39941 ft | 493 kts | 352° |
| 2026-05-03 21:43 | 30.11294 | -5.96713 | 40030 ft | 493 kts | 352° |
| 2026-05-03 21:44 | 30.14729 | -5.96719 | 40281 ft | 493 kts | 352° |
| 2026-05-03 21:44 | 30.18162 | -5.96725 | 40555 ft | 492 kts | 352° |
| 2026-05-03 21:44 | 30.21588 | -5.96729 | 40818 ft | 491 kts | 352° |
| 2026-05-03 21:44 | 30.25002 | -5.96733 | 41068 ft | 490 kts | 352° |
| 2026-05-03 21:45 | 30.28417 | -5.96737 | 41304 ft | 490 kts | 352° |
| 2026-05-03 21:45 | 30.31819 | -5.96741 | 41529 ft | 489 kts | 352° |
| 2026-05-03 21:45 | 30.35222 | -5.96746 | 41761 ft | 489 kts | 352° |
| 2026-05-03 21:45 | 30.38626 | -5.96750 | 41945 ft | 489 kts | 352° |
| 2026-05-03 21:46 | 30.45437 | -5.96761 | 41972 ft | 489 kts | 352° |
| 2026-05-03 21:46 | 30.52246 | -5.96770 | 41969 ft | 489 kts | 352° |
| 2026-05-03 21:47 | 30.59058 | -5.96778 | 41971 ft | 489 kts | 352° |
| 2026-05-03 21:47 | 30.65866 | -5.96786 | 41978 ft | 489 kts | 352° |
| 2026-05-03 21:48 | 30.72618 | -5.96795 | 41985 ft | 489 kts | 352° |
| 2026-05-03 21:48 | 30.79432 | -5.96804 | 41988 ft | 489 kts | 353° |
| 2026-05-03 21:49 | 30.86233 | -5.96813 | 42003 ft | 489 kts | 352° |
| 2026-05-03 21:49 | 30.93036 | -5.96821 | 42015 ft | 488 kts | 352° |
| 2026-05-03 21:50 | 30.99841 | -5.96831 | 42021 ft | 489 kts | 352° |
| 2026-05-03 21:50 | 31.06641 | -5.96840 | 42026 ft | 488 kts | 352° |
| 2026-05-03 21:51 | 31.13387 | -5.96849 | 42021 ft | 486 kts | 352° |
| 2026-05-03 21:51 | 31.20174 | -5.96857 | 42035 ft | 487 kts | 352° |
| 2026-05-03 21:52 | 31.26967 | -5.96869 | 42051 ft | 488 kts | 352° |
| 2026-05-03 21:52 | 31.33765 | -5.96877 | 42058 ft | 488 kts | 352° |
| 2026-05-03 21:53 | 31.40572 | -5.96884 | 42071 ft | 488 kts | 352° |
| 2026-05-03 21:53 | 31.47333 | -5.96892 | 42078 ft | 488 kts | 352° |
| 2026-05-03 21:54 | 31.54128 | -5.96901 | 42077 ft | 487 kts | 352° |
| 2026-05-03 21:54 | 31.60928 | -5.96913 | 42100 ft | 489 kts | 352° |
| 2026-05-03 21:55 | 31.67729 | -5.96921 | 42108 ft | 488 kts | 352° |
| 2026-05-03 21:55 | 31.74534 | -5.96929 | 42125 ft | 488 kts | 352° |
| 2026-05-03 21:56 | 31.81335 | -5.96939 | 42130 ft | 489 kts | 352° |
| 2026-05-03 21:56 | 31.88110 | -5.96950 | 42134 ft | 490 kts | 352° |
| 2026-05-03 21:57 | 31.94925 | -5.96958 | 42131 ft | 490 kts | 352° |
| 2026-05-03 21:57 | 32.01794 | -5.96968 | 42135 ft | 491 kts | 353° |
| 2026-05-03 21:58 | 32.08597 | -5.96970 | 42131 ft | 492 kts | 352° |
| 2026-05-03 21:58 | 32.15445 | -5.96978 | 42128 ft | 491 kts | 352° |
| 2026-05-03 21:59 | 32.22235 | -5.96988 | 42121 ft | 490 kts | 352° |
| 2026-05-03 21:59 | 32.29062 | -5.97000 | 42114 ft | 491 kts | 352° |
| 2026-05-03 22:00 | 32.35896 | -5.97010 | 42115 ft | 491 kts | 352° |
| 2026-05-03 22:00 | 32.42738 | -5.97019 | 42111 ft | 491 kts | 352° |
| 2026-05-03 22:01 | 32.49585 | -5.97029 | 42097 ft | 491 kts | 352° |
| 2026-05-03 22:01 | 32.56422 | -5.97033 | 42086 ft | 491 kts | 353° |
| 2026-05-03 22:02 | 32.63211 | -5.97042 | 42088 ft | 491 kts | 352° |
| 2026-05-03 22:02 | 32.70047 | -5.97053 | 42084 ft | 491 kts | 352° |
| 2026-05-03 22:03 | 32.76882 | -5.97064 | 42082 ft | 491 kts | 353° |
| 2026-05-03 22:03 | 32.83729 | -5.97074 | 42081 ft | 491 kts | 353° |
| 2026-05-03 22:04 | 32.90543 | -5.97082 | 42076 ft | 492 kts | 353° |
| 2026-05-03 22:04 | 32.97414 | -5.97089 | 42085 ft | 492 kts | 352° |
| 2026-05-03 22:05 | 33.04261 | -5.97101 | 42086 ft | 492 kts | 353° |
| 2026-05-03 22:05 | 33.11101 | -5.97117 | 42085 ft | 492 kts | 353° |
| 2026-05-03 22:06 | 33.17960 | -5.97123 | 42090 ft | 493 kts | 353° |
| 2026-05-03 22:06 | 33.24785 | -5.97131 | 42081 ft | 493 kts | 353° |
| 2026-05-03 22:07 | 33.31652 | -5.97140 | 42085 ft | 493 kts | 353° |
| 2026-05-03 22:07 | 33.38528 | -5.97149 | 42086 ft | 493 kts | 353° |
| 2026-05-03 22:08 | 33.45393 | -5.97159 | 42087 ft | 493 kts | 353° |
| 2026-05-03 22:08 | 33.52273 | -5.97167 | 42094 ft | 494 kts | 353° |
| 2026-05-03 22:09 | 33.59143 | -5.97179 | 42080 ft | 494 kts | 353° |
| 2026-05-03 22:10 | 33.69421 | -5.97198 | 42081 ft | 494 kts | 352° |
| 2026-05-03 22:10 | 33.76303 | -5.97209 | 42085 ft | 494 kts | 353° |
| 2026-05-03 22:11 | 33.83136 | -5.97212 | 42080 ft | 494 kts | 353° |
| 2026-05-03 22:11 | 33.90008 | -5.97217 | 42075 ft | 494 kts | 353° |
| 2026-05-03 22:12 | 33.96888 | -5.97227 | 42072 ft | 494 kts | 353° |
| 2026-05-03 22:12 | 34.03775 | -5.97236 | 42073 ft | 494 kts | 353° |
| 2026-05-03 22:13 | 34.10654 | -5.97246 | 42073 ft | 494 kts | 353° |
| 2026-05-03 22:13 | 34.17493 | -5.97256 | 42069 ft | 494 kts | 353° |
| 2026-05-03 22:14 | 34.24384 | -5.97266 | 42066 ft | 494 kts | 353° |
| 2026-05-03 22:14 | 34.31259 | -5.97275 | 42064 ft | 494 kts | 353° |
| 2026-05-03 22:15 | 34.38174 | -5.96641 | 42070 ft | 505 kts | 4° |
| 2026-05-03 22:15 | 34.45068 | -5.94718 | 42063 ft | 510 kts | 8° |
| 2026-05-03 22:16 | 34.51931 | -5.92468 | 42061 ft | 511 kts | 9° |
| 2026-05-03 22:16 | 34.58744 | -5.90220 | 42064 ft | 510 kts | 8° |
| 2026-05-03 22:17 | 34.65647 | -5.87986 | 42061 ft | 510 kts | 8° |
| 2026-05-03 22:17 | 34.72462 | -5.85801 | 42063 ft | 510 kts | 8° |
| 2026-05-03 22:18 | 34.79297 | -5.83357 | 42063 ft | 513 kts | 12° |
| 2026-05-03 22:18 | 34.86075 | -5.80572 | 42066 ft | 514 kts | 13° |
| 2026-05-03 22:19 | 34.92831 | -5.77723 | 42072 ft | 513 kts | 13° |
| 2026-05-03 22:19 | 34.99603 | -5.74878 | 42064 ft | 513 kts | 13° |
| 2026-05-03 22:20 | 35.06332 | -5.72066 | 42057 ft | 513 kts | 13° |
| 2026-05-03 22:20 | 35.13094 | -5.69241 | 42063 ft | 513 kts | 13° |
| 2026-05-03 22:21 | 35.18716 | -5.66888 | 42059 ft | 513 kts | 13° |
| 2026-05-03 22:21 | 35.25463 | -5.64059 | 42059 ft | 513 kts | 13° |
| 2026-05-03 22:22 | 35.32225 | -5.61218 | 42060 ft | 513 kts | 13° |
| 2026-05-03 22:22 | 35.38975 | -5.58379 | 42055 ft | 513 kts | 13° |
| 2026-05-03 22:23 | 35.45680 | -5.55552 | 42045 ft | 513 kts | 13° |
| 2026-05-03 22:23 | 35.52434 | -5.52700 | 42047 ft | 513 kts | 13° |
| 2026-05-03 22:24 | 35.59186 | -5.49844 | 42048 ft | 513 kts | 13° |
| 2026-05-03 22:24 | 35.65948 | -5.46977 | 42047 ft | 513 kts | 13° |
| 2026-05-03 22:25 | 35.72691 | -5.44114 | 42045 ft | 513 kts | 13° |
| 2026-05-03 22:25 | 35.79406 | -5.41258 | 42050 ft | 513 kts | 13° |
| 2026-05-03 22:26 | 35.86164 | -5.38379 | 42050 ft | 513 kts | 13° |
| 2026-05-03 22:26 | 35.92916 | -5.35498 | 42050 ft | 514 kts | 13° |
| 2026-05-03 22:27 | 35.99679 | -5.32605 | 42048 ft | 514 kts | 13° |
| 2026-05-03 22:27 | 36.06459 | -5.29700 | 42043 ft | 514 kts | 13° |
| 2026-05-03 22:28 | 36.13181 | -5.26815 | 42050 ft | 515 kts | 13° |
| 2026-05-03 22:28 | 36.19947 | -5.23905 | 42048 ft | 514 kts | 14° |
| 2026-05-03 22:29 | 36.26711 | -5.20990 | 42053 ft | 514 kts | 14° |
| 2026-05-03 22:29 | 36.33473 | -5.18072 | 42048 ft | 514 kts | 14° |
| 2026-05-03 22:30 | 36.40194 | -5.15166 | 42051 ft | 514 kts | 14° |
| 2026-05-03 22:30 | 36.46941 | -5.12244 | 42047 ft | 514 kts | 14° |
| 2026-05-03 22:31 | 36.53714 | -5.09306 | 42048 ft | 515 kts | 14° |
| 2026-05-03 22:31 | 36.60481 | -5.06364 | 42046 ft | 515 kts | 14° |
| 2026-05-03 22:32 | 36.67250 | -5.03415 | 42038 ft | 515 kts | 14° |
| 2026-05-03 22:32 | 36.74015 | -5.00462 | 42035 ft | 515 kts | 14° |
| 2026-05-03 22:33 | 36.80748 | -4.97518 | 42036 ft | 515 kts | 14° |
| 2026-05-03 22:33 | 36.87510 | -4.94556 | 42038 ft | 515 kts | 14° |
| 2026-05-03 22:34 | 36.94277 | -4.91586 | 42037 ft | 515 kts | 14° |
| 2026-05-03 22:34 | 37.01045 | -4.88611 | 42039 ft | 515 kts | 14° |
| 2026-05-03 22:35 | 37.07816 | -4.85628 | 42039 ft | 515 kts | 14° |
| 2026-05-03 22:35 | 37.14542 | -4.82660 | 42039 ft | 515 kts | 14° |
| 2026-05-03 22:36 | 37.21355 | -4.79647 | 42037 ft | 515 kts | 14° |
| 2026-05-03 22:36 | 37.28085 | -4.76665 | 42040 ft | 516 kts | 14° |
| 2026-05-03 22:37 | 37.34865 | -4.73656 | 42037 ft | 516 kts | 14° |
| 2026-05-03 22:37 | 37.41632 | -4.70646 | 42036 ft | 516 kts | 14° |
| 2026-05-03 22:38 | 37.48411 | -4.67625 | 42035 ft | 516 kts | 14° |
| 2026-05-03 22:38 | 37.55194 | -4.64597 | 42031 ft | 516 kts | 14° |
| 2026-05-03 22:39 | 37.61992 | -4.61557 | 42032 ft | 516 kts | 14° |
| 2026-05-03 22:39 | 37.68716 | -4.58543 | 42024 ft | 516 kts | 14° |
| 2026-05-03 22:40 | 37.75503 | -4.55495 | 42028 ft | 517 kts | 14° |
| 2026-05-03 22:40 | 37.82289 | -4.52442 | 42023 ft | 517 kts | 14° |
| 2026-05-03 22:41 | 37.89084 | -4.49379 | 42026 ft | 517 kts | 14° |
| 2026-05-03 22:41 | 37.95860 | -4.46319 | 42029 ft | 517 kts | 14° |
| 2026-05-03 22:42 | 38.02651 | -4.43245 | 42014 ft | 517 kts | 14° |
| 2026-05-03 22:42 | 38.09436 | -4.40169 | 42011 ft | 518 kts | 14° |
| 2026-05-03 22:43 | 38.16236 | -4.37079 | 42028 ft | 518 kts | 15° |
| 2026-05-03 22:43 | 38.22983 | -4.34008 | 42016 ft | 518 kts | 15° |
| 2026-05-03 22:44 | 38.29772 | -4.30910 | 42017 ft | 518 kts | 15° |
| 2026-05-03 22:44 | 38.36571 | -4.27802 | 42015 ft | 518 kts | 15° |
| 2026-05-03 22:45 | 38.43368 | -4.24689 | 42016 ft | 518 kts | 15° |
| 2026-05-03 22:45 | 38.50155 | -4.21576 | 42015 ft | 519 kts | 15° |
| 2026-05-03 22:46 | 38.56961 | -4.18446 | 42015 ft | 519 kts | 15° |
| 2026-05-03 22:46 | 38.63818 | -4.15272 | 42019 ft | 520 kts | 15° |
| 2026-05-03 22:47 | 38.70568 | -4.11860 | 42016 ft | 522 kts | 18° |
| 2026-05-03 22:47 | 38.77276 | -4.08272 | 42018 ft | 522 kts | 18° |
| 2026-05-03 22:48 | 38.83996 | -4.04689 | 42017 ft | 522 kts | 18° |
| 2026-05-03 22:48 | 38.90714 | -4.01139 | 42013 ft | 523 kts | 18° |
| 2026-05-03 22:49 | 38.97406 | -3.97610 | 42014 ft | 523 kts | 18° |
| 2026-05-03 22:49 | 39.04025 | -3.94113 | 42016 ft | 523 kts | 18° |
| 2026-05-03 22:50 | 39.10763 | -3.90545 | 42015 ft | 523 kts | 18° |
| 2026-05-03 22:50 | 39.17455 | -3.86992 | 42012 ft | 523 kts | 18° |
| 2026-05-03 22:51 | 39.24181 | -3.83414 | 42015 ft | 523 kts | 18° |
| 2026-05-03 22:51 | 39.30906 | -3.79831 | 42010 ft | 523 kts | 18° |
| 2026-05-03 22:52 | 39.37641 | -3.76233 | 42011 ft | 523 kts | 18° |
| 2026-05-03 22:52 | 39.44367 | -3.72632 | 42011 ft | 522 kts | 18° |
| 2026-05-03 22:53 | 39.51082 | -3.69029 | 42008 ft | 522 kts | 18° |
| 2026-05-03 22:53 | 39.57795 | -3.65420 | 42007 ft | 522 kts | 18° |
| 2026-05-03 22:54 | 39.64468 | -3.61826 | 42005 ft | 522 kts | 18° |
| 2026-05-03 22:54 | 39.71167 | -3.58210 | 42003 ft | 521 kts | 18° |
| 2026-05-03 22:55 | 39.77866 | -3.54586 | 42002 ft | 521 kts | 18° |
| 2026-05-03 22:55 | 39.84550 | -3.50963 | 41997 ft | 520 kts | 18° |
| 2026-05-03 22:56 | 39.91231 | -3.47334 | 41986 ft | 520 kts | 18° |
| 2026-05-03 22:56 | 39.97913 | -3.43696 | 42007 ft | 519 kts | 18° |
| 2026-05-03 22:57 | 40.04536 | -3.40082 | 41993 ft | 519 kts | 18° |
| 2026-05-03 22:57 | 40.11193 | -3.36444 | 41995 ft | 518 kts | 18° |
| 2026-05-03 22:58 | 40.17845 | -3.32799 | 41993 ft | 518 kts | 18° |
| 2026-05-03 22:58 | 40.24502 | -3.29144 | 41992 ft | 518 kts | 18° |
| 2026-05-03 22:59 | 40.29543 | -3.26372 | 41995 ft | 518 kts | 18° |
| 2026-05-03 22:59 | 40.36177 | -3.22716 | 41996 ft | 518 kts | 18° |
| 2026-05-03 23:00 | 40.42817 | -3.19048 | 42000 ft | 517 kts | 18° |
| 2026-05-03 23:00 | 40.49450 | -3.15378 | 41994 ft | 517 kts | 18° |
| 2026-05-03 23:01 | 40.56088 | -3.11695 | 41996 ft | 517 kts | 19° |
| 2026-05-03 23:01 | 40.62716 | -3.08011 | 41995 ft | 517 kts | 18° |
| 2026-05-03 23:02 | 40.69343 | -3.04318 | 41993 ft | 517 kts | 19° |
| 2026-05-03 23:02 | 40.75971 | -3.00619 | 41998 ft | 517 kts | 19° |
| 2026-05-03 23:03 | 40.82591 | -2.96916 | 41999 ft | 517 kts | 19° |
| 2026-05-03 23:03 | 40.89205 | -2.93208 | 41998 ft | 516 kts | 19° |
| 2026-05-03 23:04 | 40.95832 | -2.89484 | 41998 ft | 516 kts | 19° |
| 2026-05-03 23:04 | 41.02448 | -2.85758 | 41998 ft | 516 kts | 19° |
| 2026-05-03 23:05 | 41.09064 | -2.82024 | 41993 ft | 516 kts | 19° |
| 2026-05-03 23:05 | 41.15672 | -2.78287 | 41994 ft | 516 kts | 19° |
| 2026-05-03 23:06 | 41.22237 | -2.74566 | 41995 ft | 516 kts | 19° |
| 2026-05-03 23:06 | 41.28848 | -2.70810 | 41995 ft | 516 kts | 19° |
| 2026-05-03 23:07 | 41.35458 | -2.67046 | 41993 ft | 516 kts | 19° |
| 2026-05-03 23:07 | 41.42065 | -2.63275 | 41993 ft | 516 kts | 19° |
| 2026-05-03 23:08 | 41.48673 | -2.59497 | 41992 ft | 516 kts | 19° |
| 2026-05-03 23:08 | 41.55294 | -2.55701 | 41986 ft | 517 kts | 19° |
| 2026-05-03 23:09 | 41.61855 | -2.51932 | 41988 ft | 517 kts | 19° |
| 2026-05-03 23:09 | 41.68473 | -2.48123 | 41988 ft | 517 kts | 19° |
| 2026-05-03 23:10 | 41.75090 | -2.44304 | 41992 ft | 517 kts | 19° |
| 2026-05-03 23:10 | 41.81699 | -2.40482 | 41992 ft | 517 kts | 20° |
| 2026-05-03 23:11 | 41.88312 | -2.36649 | 41991 ft | 518 kts | 20° |
| 2026-05-03 23:11 | 41.94922 | -2.32809 | 41991 ft | 517 kts | 20° |
| 2026-05-03 23:12 | 42.01545 | -2.28952 | 41985 ft | 518 kts | 20° |
| 2026-05-03 23:12 | 42.08149 | -2.25098 | 41982 ft | 517 kts | 20° |
| 2026-05-03 23:13 | 42.14718 | -2.21255 | 41981 ft | 517 kts | 20° |
| 2026-05-03 23:13 | 42.21311 | -2.17391 | 41984 ft | 517 kts | 20° |
| 2026-05-03 23:14 | 42.27913 | -2.13511 | 41987 ft | 517 kts | 20° |
| 2026-05-03 23:14 | 42.34508 | -2.09627 | 41995 ft | 517 kts | 20° |
| 2026-05-03 23:15 | 42.41115 | -2.05727 | 41985 ft | 517 kts | 20° |
| 2026-05-03 23:15 | 42.47713 | -2.01823 | 41984 ft | 517 kts | 20° |
| 2026-05-03 23:16 | 42.54318 | -1.97906 | 41982 ft | 518 kts | 20° |
| 2026-05-03 23:16 | 42.60919 | -1.93982 | 41976 ft | 518 kts | 20° |
| 2026-05-03 23:17 | 42.67526 | -1.90046 | 41975 ft | 518 kts | 21° |
| 2026-05-03 23:17 | 42.74132 | -1.86101 | 41970 ft | 518 kts | 21° |
| 2026-05-03 23:18 | 42.80731 | -1.82150 | 41967 ft | 518 kts | 21° |
| 2026-05-03 23:18 | 42.87324 | -1.78195 | 41970 ft | 518 kts | 21° |
| 2026-05-03 23:19 | 42.93925 | -1.74224 | 41969 ft | 518 kts | 21° |
| 2026-05-03 23:19 | 43.00525 | -1.70245 | 41971 ft | 518 kts | 21° |
| 2026-05-03 23:20 | 43.07138 | -1.66252 | 41967 ft | 519 kts | 21° |
| 2026-05-03 23:20 | 43.13755 | -1.62244 | 41954 ft | 519 kts | 21° |
| 2026-05-03 23:21 | 43.20359 | -1.58233 | 41946 ft | 519 kts | 21° |
| 2026-05-03 23:21 | 43.26930 | -1.54234 | 41948 ft | 519 kts | 21° |
| 2026-05-03 23:22 | 43.36832 | -1.48191 | 41939 ft | 519 kts | 21° |
| 2026-05-03 23:22 | 43.43433 | -1.44150 | 41939 ft | 520 kts | 22° |
| 2026-05-03 23:23 | 43.50045 | -1.40092 | 41939 ft | 520 kts | 22° |
| 2026-05-03 23:23 | 43.56653 | -1.36027 | 41944 ft | 520 kts | 22° |
| 2026-05-03 23:24 | 43.63264 | -1.31951 | 41943 ft | 520 kts | 22° |
| 2026-05-03 23:24 | 43.69828 | -1.27894 | 41941 ft | 520 kts | 22° |
| 2026-05-03 23:25 | 43.76429 | -1.23804 | 41940 ft | 520 kts | 22° |
| 2026-05-03 23:25 | 43.83028 | -1.19705 | 41943 ft | 520 kts | 22° |
| 2026-05-03 23:26 | 43.89624 | -1.15598 | 41945 ft | 520 kts | 22° |
| 2026-05-03 23:26 | 43.96220 | -1.11481 | 41947 ft | 520 kts | 22° |
| 2026-05-03 23:27 | 44.02816 | -1.07354 | 41952 ft | 520 kts | 22° |
| 2026-05-03 23:27 | 44.09417 | -1.03214 | 41954 ft | 520 kts | 22° |
| 2026-05-03 23:28 | 44.16008 | -0.99070 | 41958 ft | 520 kts | 22° |
| 2026-05-03 23:28 | 44.22612 | -0.94907 | 41960 ft | 520 kts | 22° |
| 2026-05-03 23:29 | 44.29227 | -0.90727 | 41956 ft | 520 kts | 22° |
| 2026-05-03 23:29 | 44.35829 | -0.86546 | 41957 ft | 521 kts | 22° |
| 2026-05-03 23:30 | 44.42333 | -0.82471 | 41960 ft | 520 kts | 20° |
| 2026-05-03 23:30 | 44.49127 | -0.79018 | 41963 ft | 519 kts | 16° |
| 2026-05-03 23:31 | 44.56020 | -0.75767 | 41959 ft | 520 kts | 17° |
| 2026-05-03 23:31 | 44.62854 | -0.72429 | 41960 ft | 520 kts | 17° |
| 2026-05-03 23:32 | 44.69624 | -0.69024 | 41962 ft | 520 kts | 18° |
| 2026-05-03 23:32 | 44.76441 | -0.65563 | 41966 ft | 520 kts | 18° |
| 2026-05-03 23:33 | 44.83260 | -0.62094 | 41969 ft | 520 kts | 18° |
| 2026-05-03 23:33 | 44.90078 | -0.58621 | 41964 ft | 520 kts | 18° |
| 2026-05-03 23:34 | 44.96858 | -0.55161 | 41964 ft | 520 kts | 18° |
| 2026-05-03 23:34 | 45.03671 | -0.51675 | 41961 ft | 520 kts | 18° |
| 2026-05-03 23:35 | 45.10487 | -0.48179 | 41960 ft | 520 kts | 18° |
| 2026-05-03 23:35 | 45.16146 | -0.45270 | 41959 ft | 520 kts | 18° |
| 2026-05-03 23:36 | 45.22949 | -0.41763 | 41960 ft | 520 kts | 18° |
| 2026-05-03 23:36 | 45.29749 | -0.38250 | 41961 ft | 519 kts | 18° |
| 2026-05-03 23:37 | 45.36541 | -0.34731 | 41966 ft | 519 kts | 18° |
| 2026-05-03 23:37 | 45.43341 | -0.31200 | 41976 ft | 519 kts | 18° |
| 2026-05-03 23:38 | 45.50077 | -0.27693 | 41985 ft | 519 kts | 18° |
| 2026-05-03 23:38 | 45.56864 | -0.24150 | 41996 ft | 519 kts | 18° |
| 2026-05-03 23:39 | 45.63650 | -0.20598 | 42001 ft | 519 kts | 18° |
| 2026-05-03 23:39 | 45.70442 | -0.17034 | 41986 ft | 519 kts | 18° |
| 2026-05-03 23:40 | 45.77231 | -0.13463 | 41974 ft | 519 kts | 18° |
| 2026-05-03 23:40 | 45.83962 | -0.09913 | 41983 ft | 519 kts | 19° |
| 2026-05-03 23:41 | 45.90737 | -0.06330 | 41967 ft | 519 kts | 19° |
| 2026-05-03 23:41 | 45.97520 | -0.02734 | 41961 ft | 519 kts | 19° |
| 2026-05-03 23:42 | 46.04299 | 0.00870 | 41965 ft | 519 kts | 19° |
| 2026-05-03 23:42 | 46.11069 | 0.04478 | 41961 ft | 519 kts | 19° |
| 2026-05-03 23:43 | 46.17844 | 0.08098 | 41966 ft | 519 kts | 19° |
| 2026-05-03 23:43 | 46.24615 | 0.11726 | 41957 ft | 519 kts | 19° |
| 2026-05-03 23:44 | 46.31378 | 0.15359 | 41962 ft | 519 kts | 19° |
| 2026-05-03 23:44 | 46.38157 | 0.19010 | 41967 ft | 518 kts | 19° |
| 2026-05-03 23:45 | 46.44875 | 0.22638 | 41964 ft | 518 kts | 19° |
| 2026-05-03 23:45 | 46.51635 | 0.26299 | 41964 ft | 518 kts | 19° |
| 2026-05-03 23:46 | 46.58443 | 0.29756 | 41970 ft | 517 kts | 12° |
| 2026-05-03 23:46 | 46.65446 | 0.32105 | 41965 ft | 515 kts | 10° |
| 2026-05-03 23:47 | 46.72432 | 0.34247 | 41966 ft | 515 kts | 9° |
| 2026-05-03 23:47 | 46.79451 | 0.36375 | 41963 ft | 515 kts | 9° |
| 2026-05-03 23:48 | 46.86469 | 0.38525 | 41959 ft | 515 kts | 9° |
| 2026-05-03 23:48 | 46.93481 | 0.40691 | 41960 ft | 515 kts | 9° |
| 2026-05-03 23:49 | 47.00484 | 0.42863 | 41958 ft | 515 kts | 10° |
| 2026-05-03 23:49 | 47.07586 | 0.44574 | 41957 ft | 511 kts | 359° |
| 2026-05-03 23:50 | 47.13448 | 0.43970 | 41958 ft | 506 kts | 349° |
| 2026-05-03 23:50 | 47.21539 | 0.42092 | 41959 ft | 506 kts | 347° |
| 2026-05-03 23:51 | 47.28475 | 0.40340 | 41962 ft | 506 kts | 347° |
| 2026-05-03 23:51 | 47.35433 | 0.38604 | 41961 ft | 506 kts | 348° |
| 2026-05-03 23:52 | 47.42374 | 0.36894 | 41963 ft | 506 kts | 348° |
| 2026-05-03 23:52 | 47.49336 | 0.35186 | 41959 ft | 506 kts | 348° |
| 2026-05-03 23:53 | 47.56296 | 0.33467 | 41959 ft | 506 kts | 348° |
| 2026-05-03 23:53 | 47.63246 | 0.31735 | 41957 ft | 506 kts | 348° |
| 2026-05-03 23:54 | 47.70201 | 0.29999 | 41964 ft | 506 kts | 348° |
| 2026-05-03 23:54 | 47.77221 | 0.29015 | 41966 ft | 511 kts | 4° |
| 2026-05-03 23:55 | 47.80690 | 0.30155 | 41926 ft | 512 kts | 19° |
| 2026-05-03 23:55 | 47.83874 | 0.32530 | 41690 ft | 513 kts | 34° |
| 2026-05-03 23:55 | 47.86556 | 0.36022 | 41440 ft | 514 kts | 50° |
| 2026-05-03 23:55 | 47.88572 | 0.40409 | 41195 ft | 514 kts | 64° |
| 2026-05-03 23:56 | 47.90251 | 0.45122 | 40939 ft | 517 kts | 60° |
| 2026-05-03 23:56 | 47.92014 | 0.49815 | 40692 ft | 519 kts | 62° |
| 2026-05-03 23:56 | 47.93832 | 0.54467 | 40451 ft | 520 kts | 59° |
| 2026-05-03 23:56 | 47.95759 | 0.59046 | 40207 ft | 520 kts | 58° |
| 2026-05-03 23:57 | 47.97745 | 0.63553 | 39966 ft | 521 kts | 57° |
| 2026-05-03 23:57 | 47.99775 | 0.68050 | 39744 ft | 521 kts | 56° |
| 2026-05-03 23:57 | 48.01825 | 0.72534 | 39374 ft | 520 kts | 56° |
| 2026-05-03 23:57 | 48.03878 | 0.76996 | 38731 ft | 521 kts | 56° |
| 2026-05-03 23:58 | 48.05930 | 0.81441 | 37919 ft | 522 kts | 56° |
| 2026-05-03 23:58 | 48.07971 | 0.85859 | 37207 ft | 522 kts | 56° |
| 2026-05-03 23:58 | 48.10033 | 0.90327 | 36479 ft | 521 kts | 57° |
| 2026-05-03 23:58 | 48.12121 | 0.94854 | 35719 ft | 522 kts | 57° |
| 2026-05-03 23:59 | 48.14183 | 0.99332 | 34970 ft | 524 kts | 57° |
| 2026-05-03 23:59 | 48.16254 | 1.03836 | 34151 ft | 527 kts | 58° |
| 2026-05-03 23:59 | 48.18339 | 1.08377 | 33164 ft | 531 kts | 58° |
| 2026-05-03 23:59 | 48.20462 | 1.13010 | 32192 ft | 534 kts | 58° |
| 2026-05-04 00:00 | 48.22571 | 1.17620 | 31234 ft | 536 kts | 59° |
| 2026-05-04 00:00 | 48.24654 | 1.22181 | 30249 ft | 539 kts | 59° |
| 2026-05-04 00:00 | 48.26603 | 1.26456 | 29204 ft | 542 kts | 59° |
| 2026-05-04 00:00 | 48.28670 | 1.31001 | 28431 ft | 538 kts | 59° |
| 2026-05-04 00:01 | 48.30773 | 1.35626 | 27659 ft | 533 kts | 59° |
| 2026-05-04 00:01 | 48.32852 | 1.40209 | 26908 ft | 528 kts | 59° |
| 2026-05-04 00:01 | 48.34889 | 1.44706 | 26171 ft | 524 kts | 58° |
| 2026-05-04 00:01 | 48.36961 | 1.49289 | 25406 ft | 520 kts | 58° |
| 2026-05-04 00:02 | 48.38957 | 1.53710 | 24666 ft | 516 kts | 58° |
| 2026-05-04 00:02 | 48.40987 | 1.58211 | 23915 ft | 512 kts | 58° |
| 2026-05-04 00:02 | 48.42980 | 1.62640 | 23124 ft | 507 kts | 58° |
| 2026-05-04 00:02 | 48.44935 | 1.66994 | 22377 ft | 500 kts | 58° |
| 2026-05-04 00:03 | 48.46876 | 1.71321 | 21620 ft | 493 kts | 58° |
| 2026-05-04 00:03 | 48.48807 | 1.75634 | 20909 ft | 486 kts | 58° |
| 2026-05-04 00:03 | 48.50699 | 1.79867 | 20170 ft | 480 kts | 58° |
| 2026-05-04 00:03 | 48.52510 | 1.83926 | 19473 ft | 475 kts | 57° |
| 2026-05-04 00:04 | 48.54347 | 1.88049 | 18736 ft | 470 kts | 57° |
| 2026-05-04 00:04 | 48.56160 | 1.92124 | 17972 ft | 465 kts | 57° |
| 2026-05-04 00:04 | 48.57949 | 1.96148 | 17207 ft | 459 kts | 57° |
| 2026-05-04 00:04 | 48.59717 | 2.00130 | 16471 ft | 453 kts | 57° |
| 2026-05-04 00:05 | 48.61458 | 2.04058 | 15744 ft | 446 kts | 57° |
| 2026-05-04 00:05 | 48.63172 | 2.07933 | 15037 ft | 439 kts | 57° |
| 2026-05-04 00:05 | 48.64296 | 2.10474 | 14574 ft | 435 kts | 57° |
| 2026-05-04 00:05 | 48.65208 | 2.12538 | 14193 ft | 432 kts | 57° |
| 2026-05-04 00:06 | 48.66336 | 2.15096 | 13704 ft | 428 kts | 57° |
| 2026-05-04 00:06 | 48.67955 | 2.18769 | 12877 ft | 422 kts | 57° |
| 2026-05-04 00:06 | 48.69576 | 2.22453 | 12126 ft | 416 kts | 57° |
| 2026-05-04 00:06 | 48.71164 | 2.26069 | 11430 ft | 409 kts | 57° |
| 2026-05-04 00:07 | 48.72703 | 2.29575 | 11245 ft | 389 kts | 57° |
| 2026-05-04 00:07 | 48.74161 | 2.32900 | 11146 ft | 369 kts | 57° |
| 2026-05-04 00:07 | 48.75545 | 2.36061 | 11034 ft | 351 kts | 57° |
| 2026-05-04 00:07 | 48.76863 | 2.39073 | 10922 ft | 334 kts | 57° |
| 2026-05-04 00:08 | 48.78118 | 2.41948 | 10783 ft | 321 kts | 57° |
| 2026-05-04 00:08 | 48.79327 | 2.44720 | 10636 ft | 308 kts | 57° |
| 2026-05-04 00:08 | 48.80494 | 2.47397 | 10389 ft | 301 kts | 57° |
| 2026-05-04 00:08 | 48.81646 | 2.50045 | 10030 ft | 299 kts | 57° |
| 2026-05-04 00:09 | 48.82791 | 2.52678 | 9675 ft | 302 kts | 57° |
| 2026-05-04 00:09 | 48.83927 | 2.55295 | 9318 ft | 304 kts | 57° |
| 2026-05-04 00:09 | 48.85094 | 2.57982 | 8987 ft | 303 kts | 57° |
| 2026-05-04 00:09 | 48.86249 | 2.60643 | 8654 ft | 301 kts | 57° |
| 2026-05-04 00:10 | 48.87390 | 2.63295 | 8335 ft | 299 kts | 58° |
| 2026-05-04 00:10 | 48.88301 | 2.66123 | 8031 ft | 297 kts | 71° |
| 2026-05-04 00:10 | 48.88823 | 2.69153 | 7725 ft | 294 kts | 81° |
| 2026-05-04 00:10 | 48.89189 | 2.72207 | 7424 ft | 293 kts | 82° |
| 2026-05-04 00:11 | 48.89533 | 2.75248 | 7128 ft | 291 kts | 82° |
| 2026-05-04 00:11 | 48.89874 | 2.78278 | 6832 ft | 290 kts | 82° |
| 2026-05-04 00:11 | 48.90212 | 2.81293 | 6531 ft | 288 kts | 82° |
| 2026-05-04 00:11 | 48.90547 | 2.84288 | 6253 ft | 287 kts | 82° |
| 2026-05-04 00:12 | 48.90878 | 2.87263 | 5953 ft | 285 kts | 82° |
| 2026-05-04 00:12 | 48.91209 | 2.90236 | 5632 ft | 284 kts | 82° |
| 2026-05-04 00:12 | 48.91538 | 2.93191 | 5338 ft | 283 kts | 82° |
| 2026-05-04 00:12 | 48.91864 | 2.96129 | 5039 ft | 279 kts | 82° |
| 2026-05-04 00:13 | 48.92199 | 2.99004 | 4738 ft | 273 kts | 80° |
| 2026-05-04 00:13 | 48.92875 | 3.01663 | 4465 ft | 268 kts | 56° |
| 2026-05-04 00:13 | 48.94206 | 3.03535 | 4279 ft | 258 kts | 27° |
| 2026-05-04 00:13 | 48.95825 | 3.04531 | 4142 ft | 246 kts | 15° |
| 2026-05-04 00:14 | 48.97468 | 3.04841 | 4019 ft | 231 kts | 350° |
| 2026-05-04 00:14 | 48.98847 | 3.03927 | 4022 ft | 205 kts | 314° |
| 2026-05-04 00:14 | 48.99587 | 3.02248 | 4024 ft | 181 kts | 290° |
| 2026-05-04 00:14 | 49.00041 | 3.00585 | 4026 ft | 160 kts | 288° |
| 2026-05-04 00:15 | 49.00423 | 2.99132 | 4015 ft | 137 kts | 287° |
| 2026-05-04 00:15 | 49.00763 | 2.97833 | 4023 ft | 129 kts | 287° |
| 2026-05-04 00:15 | 49.01046 | 2.96528 | 4017 ft | 130 kts | 278° |
| 2026-05-04 00:15 | 49.01167 | 2.95168 | 4003 ft | 130 kts | 269° |
| 2026-05-04 00:16 | 49.01177 | 2.93800 | 4000 ft | 129 kts | 265° |
| 2026-05-04 00:16 | 49.01145 | 2.92422 | 4003 ft | 130 kts | 264° |
| 2026-05-04 00:16 | 49.01101 | 2.91052 | 3999 ft | 130 kts | 264° |
| 2026-05-04 00:16 | 49.01041 | 2.89678 | 4001 ft | 130 kts | 262° |
| 2026-05-04 00:17 | 49.00969 | 2.88306 | 3945 ft | 131 kts | 263° |
| 2026-05-04 00:17 | 49.00902 | 2.86924 | 3789 ft | 131 kts | 263° |
| 2026-05-04 00:17 | 49.00832 | 2.85552 | 3611 ft | 129 kts | 262° |
| 2026-05-04 00:17 | 49.00759 | 2.84191 | 3436 ft | 128 kts | 262° |
| 2026-05-04 00:18 | 49.00687 | 2.82833 | 3264 ft | 128 kts | 263° |
| 2026-05-04 00:18 | 49.00615 | 2.81480 | 3091 ft | 128 kts | 263° |
| 2026-05-04 00:18 | 49.00544 | 2.80130 | 2914 ft | 127 kts | 263° |
| 2026-05-04 00:18 | 49.00472 | 2.78784 | 2746 ft | 127 kts | 263° |
| 2026-05-04 00:19 | 49.00401 | 2.77450 | 2575 ft | 127 kts | 263° |
| 2026-05-04 00:19 | 49.00330 | 2.76111 | 2404 ft | 126 kts | 263° |
| 2026-05-04 00:19 | 49.00260 | 2.74783 | 2234 ft | 126 kts | 263° |
| 2026-05-04 00:19 | 49.00189 | 2.73450 | 2071 ft | 126 kts | 263° |
| 2026-05-04 00:20 | 49.00118 | 2.72114 | 1897 ft | 125 kts | 263° |
| 2026-05-04 00:20 | 49.00048 | 2.70802 | 1736 ft | 125 kts | 263° |
| 2026-05-04 00:20 | 48.99978 | 2.69476 | 1548 ft | 124 kts | 263° |
| 2026-05-04 00:20 | 48.99908 | 2.68173 | 1388 ft | 125 kts | 263° |
| 2026-05-04 00:21 | 48.99838 | 2.66849 | 1216 ft | 126 kts | 263° |
| 2026-05-04 00:21 | 48.99767 | 2.65510 | 1041 ft | 127 kts | 263° |
| 2026-05-04 00:21 | 48.99695 | 2.64158 | 856 ft | 128 kts | 263° |
| 2026-05-04 00:21 | 48.99623 | 2.62801 | 690 ft | 129 kts | 263° |
| 2026-05-04 00:22 | 48.99551 | 2.61443 | 524 ft | 129 kts | 263° |
| 2026-05-04 00:22 | 48.99472 | 2.60077 | 402 ft | 130 kts | 263° |
| 2026-05-04 00:22 | 48.99398 | 2.58711 | 367 ft | 122 kts | 263° |
| 2026-05-04 00:22 | 48.99346 | 2.57652 | 360 ft | 65 kts | 266° |
| 2026-05-04 00:23 | 48.99328 | 2.57230 | 362 ft | 33 kts | 266° |
| 2026-05-04 00:23 | 48.99319 | 2.56883 | 358 ft | 30 kts | 275° |
| 2026-05-04 00:23 | 48.99397 | 2.56677 | 368 ft | 23 kts | 328° |
| 2026-05-04 00:23 | 48.99558 | 2.56633 | 360 ft | 25 kts | 354° |
| 2026-05-04 00:24 | 48.99738 | 2.56607 | 367 ft | 28 kts | 355° |
| 2026-05-04 00:24 | 48.99934 | 2.56580 | 362 ft | 27 kts | 355° |
| 2026-05-04 00:24 | 49.00091 | 2.56592 | 368 ft | 11 kts | 38° |
| 2026-05-04 00:24 | 49.00117 | 2.56714 | 366 ft | 14 kts | 84° |
| 2026-05-04 00:25 | 49.00128 | 2.56865 | 360 ft | 16 kts | 84° |
| 2026-05-04 00:25 | 49.00157 | 2.57013 | 364 ft | 14 kts | 20° |
| 2026-05-04 00:25 | 49.00227 | 2.56987 | 366 ft | 2 kts | 319° |
| 2026-05-04 00:25 | 49.00241 | 2.56974 | 366 ft | 0 kts | 324° |